createdAt,value
2019-04-16T00:03:24.086Z,7
2019-04-16T00:08:28.502Z,11
2019-04-16T00:13:24.004Z,8
2019-04-16T00:18:24.021Z,11
2019-04-16T00:23:28.485Z,7
2019-04-16T00:28:23.993Z,13
2019-04-16T00:33:23.983Z,12
2019-04-16T00:38:24.013Z,12
2019-04-16T00:43:23.980Z,11
2019-04-16T00:48:23.988Z,9
2019-04-16T00:53:23.977Z,11
2019-04-16T00:58:23.957Z,13
2019-04-16T01:03:24.013Z,24
2019-04-16T01:08:23.962Z,14
2019-04-16T01:13:25.368Z,16
2019-04-16T01:18:23.940Z,15
2019-04-16T01:23:23.972Z,14
2019-04-16T01:28:24.011Z,13
2019-04-16T01:33:23.938Z,16
2019-04-16T01:49:02.419Z,14
2019-04-16T01:54:02.784Z,16
2019-04-16T01:59:06.448Z,16
2019-04-16T02:04:02.322Z,16
2019-04-16T02:09:03.790Z,13
2019-04-16T02:14:02.298Z,14
2019-04-16T02:19:02.981Z,15
2019-04-16T02:24:02.305Z,13
2019-04-16T02:29:02.316Z,15
2019-04-16T02:34:02.851Z,15
2019-04-16T02:39:02.369Z,12
2019-04-16T02:44:02.826Z,15
2019-04-16T02:49:02.436Z,14
2019-04-16T02:54:02.432Z,17
2019-04-16T02:59:14.205Z,18
2019-04-16T03:04:02.257Z,17
2019-04-16T03:09:02.265Z,18
2019-04-16T03:14:02.305Z,15
2019-04-16T04:41:28.988Z,29
2019-04-16T04:46:28.972Z,28
2019-04-16T04:51:28.900Z,28
2019-04-16T04:56:28.953Z,32
2019-04-16T05:01:28.943Z,29
2019-04-16T05:06:28.904Z,24
2019-04-16T05:11:28.943Z,31
2019-04-16T05:16:35.225Z,32
2019-04-16T05:21:28.866Z,31
2019-04-16T05:26:28.970Z,24
2019-04-16T05:31:31.376Z,24
2019-04-16T05:36:28.896Z,28
2019-04-16T05:41:28.909Z,43
2019-04-16T05:46:28.906Z,29
2019-04-16T05:51:32.273Z,25
2019-04-16T05:56:29.614Z,28
2019-04-16T06:01:29.591Z,25
2019-04-16T06:06:32.622Z,27
2019-04-16T06:11:36.845Z,27
2019-04-16T06:16:31.363Z,30
2019-04-16T06:21:30.339Z,33
2019-04-16T06:26:30.329Z,32
2019-04-16T06:31:30.288Z,39
2019-04-16T06:36:30.312Z,35
2019-04-16T06:41:48.629Z,37
2019-04-16T06:46:30.310Z,38
2019-04-16T06:51:32.070Z,40
2019-04-16T06:56:30.349Z,41
2019-04-16T07:01:30.366Z,41
2019-04-16T07:06:30.506Z,43
2019-04-16T07:11:30.290Z,41
2019-04-16T07:21:30.468Z,45
2019-04-16T07:26:32.260Z,44
2019-04-16T07:31:35.583Z,49
2019-04-16T07:36:31.070Z,47
2019-04-16T07:41:31.062Z,45
2019-04-16T07:46:31.052Z,47
2019-04-16T07:51:36.863Z,45
2019-04-16T07:56:31.097Z,48
2019-04-16T08:01:31.101Z,45
2019-04-16T08:06:32.059Z,48
2019-04-16T08:11:32.034Z,42
2019-04-16T08:21:32.817Z,46
2019-04-16T08:26:32.777Z,42
2019-04-16T08:31:33.521Z,46
2019-04-16T08:36:32.852Z,49
2019-04-16T08:41:32.786Z,50
2019-04-16T08:46:32.788Z,50
2019-04-16T15:17:03.849Z,37
2019-04-16T15:22:15.006Z,38
2019-04-16T15:27:13.615Z,32
2019-04-16T15:32:13.669Z,37
2019-04-16T15:37:13.680Z,34
2019-04-16T15:42:17.881Z,37
2019-04-16T15:47:15.211Z,37
2019-04-16T15:52:13.754Z,42
2019-04-16T15:57:13.589Z,37
2019-04-16T16:07:18.419Z,40
2019-04-16T16:12:14.282Z,30
2019-04-16T16:17:14.311Z,35
2019-04-16T16:22:14.337Z,35
2019-04-16T16:27:14.368Z,43
2019-04-16T16:32:14.336Z,38
2019-04-16T16:37:14.343Z,35
2019-04-16T16:42:19.504Z,30
2019-04-16T16:47:19.502Z,33
2019-04-16T16:52:19.545Z,40
2019-04-16T16:57:19.491Z,37
2019-04-16T17:02:19.561Z,35
2019-04-16T17:07:19.481Z,34
2019-04-16T17:12:20.605Z,39
2019-04-16T17:17:21.406Z,36
2019-04-16T17:22:21.377Z,36
2019-04-16T17:27:21.366Z,52
2019-04-16T17:30:54.853Z,45
2019-04-16T17:35:52.943Z,39
2019-04-16T17:41:00.434Z,43
2019-04-16T17:45:55.288Z,44
2019-04-16T17:47:33.720Z,43
2019-04-16T17:52:27.945Z,41
2019-04-16T17:59:08.524Z,42
2019-04-16T18:04:11.744Z,42
2019-04-16T18:09:08.446Z,42
2019-04-16T18:14:11.906Z,49
2019-04-16T18:19:09.446Z,45
2019-04-16T18:24:09.161Z,42
2019-04-16T18:33:15.265Z,43
2019-04-16T18:50:38.359Z,37
2019-04-16T19:34:30.511Z,43
2019-04-16T19:39:30.474Z,41
2019-04-16T19:44:40.657Z,38
2019-04-16T19:49:30.508Z,39
2019-04-16T19:54:32.046Z,39
2019-04-16T19:59:30.471Z,42
2019-04-16T20:08:04.724Z,38
2019-04-16T20:13:05.407Z,40
2019-04-16T20:18:07.448Z,41
2019-04-16T20:23:05.192Z,37
2019-04-16T20:28:16.496Z,39
2019-04-16T20:33:05.234Z,36
2019-04-16T20:38:05.205Z,34
2019-04-16T20:43:07.127Z,36
2019-04-16T20:48:05.385Z,35
2019-04-16T20:53:08.735Z,37
2019-04-16T20:58:05.136Z,33
2019-04-16T21:03:14.690Z,36
2019-04-16T21:08:05.065Z,38
2019-04-16T21:13:05.236Z,33
2019-04-16T21:18:15.502Z,44
2019-04-16T21:23:05.817Z,31
2019-04-16T21:28:06.318Z,31
2019-04-16T21:33:06.163Z,28
2019-04-16T21:38:06.279Z,33
2019-04-16T21:43:09.057Z,27
2019-04-16T21:48:05.795Z,32
2019-04-16T21:53:05.846Z,31
2019-04-16T21:58:05.817Z,29
2019-04-16T22:03:11.128Z,27
2019-04-16T22:08:05.861Z,28
2019-04-16T22:13:06.247Z,25
2019-04-16T22:18:10.189Z,25
2019-04-16T22:23:10.225Z,25
2019-04-16T22:28:13.287Z,30
2019-04-16T22:33:07.803Z,27
2019-04-16T22:38:07.073Z,27
2019-04-16T22:43:09.264Z,25
2019-04-16T22:48:05.755Z,23
2019-04-16T22:53:05.807Z,25
2019-04-16T22:58:07.752Z,29
2019-04-16T23:03:09.901Z,28
2019-04-16T23:08:13.193Z,21
2019-04-16T23:13:05.711Z,25
2019-04-16T23:18:05.693Z,21
2019-04-16T23:23:05.749Z,21
2019-04-16T23:28:11.920Z,21
2019-04-16T23:33:05.713Z,19
2019-04-16T23:43:06.190Z,22
2019-04-16T23:48:06.404Z,22
2019-04-16T23:53:09.615Z,27
2019-04-16T23:58:06.627Z,20
